Time;durP1;ratioP1;P1;durP2;ratioP2;P2;SDS_P1;SDS_P2;PMS_P1;PMS_P2;Temp;Humidity;BMP_temperature;BMP_pressure;BME280_temperature;BME280_humidity;BME280_pressure;Samples;Min_cycle;Max_cycle;Signal;HPM_P1;HPM_P2
2022/08/01 00:00:08;;;;;;;3.83;2.50;;;19.50;99.90;;;;;;4959712;28;20184;-77
2022/08/01 00:02:33;;;;;;;3.03;2.60;;;19.30;99.90;;;;;;4959589;28;20199;-77
2022/08/01 00:04:59;;;;;;;4.85;2.70;;;19.30;99.90;;;;;;4992984;28;20246;-77
2022/08/01 00:07:25;;;;;;;2.67;2.47;;;19.30;99.90;;;;;;4943341;28;20624;-77
2022/08/01 00:09:51;;;;;;;3.45;2.50;;;19.30;99.90;;;;;;4975462;28;20172;-78
2022/08/01 00:12:17;;;;;;;3.20;2.50;;;19.10;99.90;;;;;;4975424;28;20188;-77
2022/08/01 00:14:42;;;;;;;2.67;2.47;;;19.10;99.90;;;;;;4943525;28;20210;-77
2022/08/01 00:17:08;;;;;;;3.15;2.67;;;19.10;99.90;;;;;;4943344;28;20250;-77
2022/08/01 00:19:34;;;;;;;3.72;2.70;;;19.10;99.90;;;;;;4943422;28;20180;-77
2022/08/01 00:21:59;;;;;;;4.32;2.50;;;19.10;99.90;;;;;;4975386;28;20223;-77
2022/08/01 00:24:25;;;;;;;3.08;2.42;;;19.20;99.90;;;;;;4943515;28;20211;-77
2022/08/01 00:26:51;;;;;;;2.75;2.55;;;19.20;99.90;;;;;;4992518;28;20211;-77
2022/08/01 00:29:16;;;;;;;3.30;2.60;;;19.30;99.90;;;;;;4943305;28;20617;-77
2022/08/01 00:31:42;;;;;;;3.05;2.75;;;19.30;99.90;;;;;;4959229;28;20638;-78
2022/08/01 00:34:07;;;;;;;3.00;2.58;;;19.20;99.90;;;;;;4943279;28;20180;-78
2022/08/01 00:36:33;;;;;;;3.65;2.42;;;19.20;99.90;;;;;;4975351;28;20183;-77
2022/08/01 00:38:59;;;;;;;2.72;2.47;;;19.30;99.90;;;;;;4975396;28;20559;-77
2022/08/01 00:41:24;;;;;;;2.33;2.20;;;19.40;99.90;;;;;;4943243;28;20246;-77
2022/08/01 00:43:50;;;;;;;2.65;2.45;;;19.40;99.90;;;;;;4943527;28;20223;-77
2022/08/01 00:46:15;;;;;;;3.22;2.40;;;19.40;99.90;;;;;;4958932;28;20207;-77
2022/08/01 00:48:41;;;;;;;2.65;2.45;;;19.50;99.90;;;;;;4943005;28;20171;-77
2022/08/01 00:51:07;;;;;;;4.03;2.42;;;19.50;99.90;;;;;;4959016;28;20671;-77
2022/08/01 00:53:34;;;;;;;2.55;2.20;;;19.50;99.90;;;;;;4959184;28;20263;-77
2022/08/01 00:56:00;;;;;;;2.85;2.60;;;19.60;99.90;;;;;;4959071;28;20212;-77
2022/08/01 00:58:28;;;;;;;2.78;2.53;;;19.60;99.90;;;;;;4942873;28;20183;-77
2022/08/01 01:00:54;;;;;;;2.90;2.60;;;19.60;99.90;;;;;;4943660;28;20177;-77
2022/08/01 01:03:20;;;;;;;3.50;2.40;;;19.70;99.90;;;;;;4977186;28;20206;-77
2022/08/01 01:06:01;;;;;;;3.80;2.60;;;19.60;99.90;;;;;;4963017;28;20306;-77
2022/08/01 01:08:42;;;;;;;2.40;2.20;;;19.60;99.90;;;;;;4978908;28;20179;-77
2022/08/01 01:11:21;;;;;;;3.70;2.35;;;19.50;99.90;;;;;;4978785;28;20182;-77
2022/08/01 01:13:52;;;;;;;2.60;2.40;;;19.40;99.90;;;;;;4978611;28;20207;-77
2022/08/01 01:16:20;;;;;;;2.97;2.63;;;19.30;99.90;;;;;;4978572;28;20597;-77
2022/08/01 01:19:00;;;;;;;3.35;2.50;;;19.20;99.90;;;;;;4996090;28;20263;-77
2022/08/01 01:21:31;;;;;;;4.40;2.65;;;19.20;99.90;;;;;;4996021;28;20592;-77
2022/08/01 01:24:27;;;;;;;2.83;2.63;;;19.20;99.90;;;;;;4978416;28;20196;-77
2022/08/01 01:27:01;;;;;;;3.08;2.60;;;19.20;99.90;;;;;;4978149;28;20212;-77
2022/08/01 01:29:41;;;;;;;2.67;2.33;;;19.30;99.90;;;;;;4995906;28;20195;-77
2022/08/01 01:32:17;;;;;;;3.15;2.30;;;19.30;99.90;;;;;;4995769;28;20206;-77
2022/08/01 01:34:45;;;;;;;3.28;2.70;;;19.30;99.90;;;;;;4978536;28;20179;-78
2022/08/01 01:37:17;;;;;;;2.60;2.40;;;19.30;99.90;;;;;;4961956;28;20235;-77
2022/08/01 01:39:44;;;;;;;3.63;2.63;;;19.30;99.90;;;;;;4962226;28;20190;-77
2022/08/01 01:42:11;;;;;;;2.78;2.53;;;19.20;99.90;;;;;;4978111;28;20229;-77
2022/08/01 01:44:37;;;;;;;2.60;2.40;;;19.20;99.90;;;;;;4962208;28;20180;-77
2022/08/01 01:47:04;;;;;;;2.60;2.17;;;19.20;99.90;;;;;;4945875;28;20302;-77
2022/08/01 01:49:31;;;;;;;2.50;2.30;;;19.30;99.90;;;;;;4946346;28;20172;-77
2022/08/01 01:51:58;;;;;;;2.60;2.40;;;19.30;99.90;;;;;;4978227;28;20275;-77
2022/08/01 01:54:29;;;;;;;2.50;2.30;;;19.30;99.90;;;;;;4945966;28;20179;-77
2022/08/01 01:56:59;;;;;;;2.70;2.50;;;19.20;99.90;;;;;;4977731;28;20203;-77
2022/08/01 01:59:28;;;;;;;3.83;2.30;;;19.20;99.90;;;;;;4978269;28;20172;-77
2022/08/01 02:01:58;;;;;;;2.72;2.30;;;19.20;99.90;;;;;;4962061;28;20567;-77
2022/08/01 02:04:26;;;;;;;2.20;2.03;;;19.20;99.90;;;;;;4961837;28;20175;-77
2022/08/01 02:06:53;;;;;;;2.40;2.20;;;19.20;99.90;;;;;;4961516;28;20210;-77
2022/08/01 02:09:20;;;;;;;2.80;2.45;;;19.20;99.90;;;;;;4961664;28;20334;-77
2022/08/01 02:11:48;;;;;;;2.20;2.08;;;19.10;99.90;;;;;;4977486;28;20183;-77
2022/08/01 02:14:15;;;;;;;2.20;2.00;;;19.00;99.90;;;;;;4993642;28;20651;-77
2022/08/01 02:16:44;;;;;;;2.42;2.22;;;19.00;99.90;;;;;;4961459;28;20178;-77
2022/08/01 02:19:10;;;;;;;2.50;2.30;;;19.00;99.90;;;;;;4945640;28;20647;-77
2022/08/01 02:21:45;;;;;;;2.22;2.08;;;18.90;99.90;;;;;;4977659;28;20262;-77
2022/08/01 02:24:34;;;;;;;2.83;2.20;;;18.80;99.90;;;;;;4977764;28;20274;-77
2022/08/01 02:27:05;;;;;;;4.60;2.53;;;18.90;99.90;;;;;;4977350;28;20207;-77
2022/08/01 02:29:42;;;;;;;2.72;2.30;;;18.90;99.90;;;;;;4977627;28;20180;-77
2022/08/01 02:32:14;;;;;;;2.73;2.10;;;18.90;99.90;;;;;;4994666;28;20194;-77
2022/08/01 02:34:42;;;;;;;2.95;2.30;;;18.80;99.90;;;;;;4961883;28;20176;-77
2022/08/01 02:37:09;;;;;;;2.40;2.20;;;18.80;99.90;;;;;;4960876;28;20179;-77
2022/08/01 02:39:37;;;;;;;2.50;2.30;;;18.70;99.90;;;;;;4961479;28;20215;-77
2022/08/01 02:42:06;;;;;;;2.60;2.40;;;18.80;99.90;;;;;;4960876;28;20310;-77
2022/08/01 02:44:37;;;;;;;2.93;2.63;;;18.80;99.90;;;;;;4976873;28;20655;-77
2022/08/01 02:47:04;;;;;;;2.63;2.43;;;18.80;99.90;;;;;;4945244;28;20235;-77
2022/08/01 02:49:33;;;;;;;2.67;2.43;;;18.80;99.90;;;;;;4977232;28;20176;-77
2022/08/01 02:52:01;;;;;;;4.87;2.47;;;18.80;99.90;;;;;;4961314;28;20271;-77
2022/08/01 02:54:29;;;;;;;2.90;2.60;;;18.80;99.90;;;;;;4977037;28;20197;-77
2022/08/01 02:56:56;;;;;;;3.07;2.80;;;18.80;99.90;;;;;;4944796;28;20670;-77
2022/08/01 02:59:25;;;;;;;2.80;2.60;;;18.90;99.90;;;;;;4994111;28;20702;-78
2022/08/01 03:01:54;;;;;;;3.70;2.57;;;18.90;99.90;;;;;;4960855;28;20184;-77
2022/08/01 03:04:23;;;;;;;2.93;2.70;;;19.00;99.90;;;;;;4960977;28;20670;-77
2022/08/01 03:06:50;;;;;;;3.70;2.80;;;18.90;99.90;;;;;;4960670;28;20207;-77
2022/08/01 03:09:16;;;;;;;3.20;2.60;;;18.90;99.90;;;;;;4960889;28;20183;-77
2022/08/01 03:11:44;;;;;;;2.90;2.70;;;18.90;99.90;;;;;;4976765;28;20231;-77
2022/08/01 03:14:12;;;;;;;2.63;2.43;;;18.80;99.90;;;;;;4976476;28;20182;-77
2022/08/01 03:16:39;;;;;;;2.80;2.60;;;18.80;99.90;;;;;;4994064;28;20243;-77
2022/08/01 03:19:08;;;;;;;3.10;2.87;;;18.80;99.90;;;;;;4976428;28;20206;-76
2022/08/01 03:21:35;;;;;;;3.10;2.80;;;18.80;99.90;;;;;;4993688;28;20650;-77
2022/08/01 03:24:03;;;;;;;3.03;2.70;;;18.70;99.90;;;;;;4993645;28;20199;-77
2022/08/01 03:26:32;;;;;;;3.13;2.77;;;18.70;99.90;;;;;;4993044;28;20203;-77
2022/08/01 03:29:02;;;;;;;2.63;2.43;;;18.70;99.90;;;;;;4976152;28;20178;-77
2022/08/01 03:31:30;;;;;;;3.17;2.87;;;18.80;99.90;;;;;;4944928;28;20184;-77
2022/08/01 03:33:55;;;;;;;2.80;2.60;;;18.90;99.90;;;;;;4960226;28;20280;-77
2022/08/01 03:36:26;;;;;;;3.47;2.60;;;18.90;99.90;;;;;;4959845;28;20272;-77
2022/08/01 03:38:56;;;;;;;2.97;2.70;;;19.00;99.90;;;;;;4960070;28;20184;-77
2022/08/01 03:41:25;;;;;;;3.23;2.93;;;19.00;99.90;;;;;;4960592;28;20572;-77
2022/08/01 03:44:17;;;;;;;3.50;2.93;;;19.00;99.90;;;;;;4959108;28;20210;-77
2022/08/01 03:46:56;;;;;;;3.30;3.00;;;19.00;99.90;;;;;;4992370;28;20392;-77
2022/08/01 03:49:24;;;;;;;3.20;2.90;;;19.10;99.90;;;;;;4959507;28;20208;-77
2022/08/01 03:51:52;;;;;;;3.30;3.00;;;19.10;99.90;;;;;;4959526;28;20182;-78
2022/08/01 03:54:23;;;;;;;3.27;2.90;;;19.10;99.90;;;;;;4974979;28;20219;-77
2022/08/01 03:56:51;;;;;;;3.27;2.70;;;19.10;99.90;;;;;;4992251;28;20179;-77
2022/08/01 03:59:18;;;;;;;3.20;2.90;;;19.10;99.90;;;;;;4959226;28;20226;-77
2022/08/01 04:01:45;;;;;;;2.93;2.73;;;19.10;99.90;;;;;;4975049;28;20256;-77
2022/08/01 04:04:11;;;;;;;3.13;2.90;;;19.10;99.90;;;;;;4958721;28;20210;-77
2022/08/01 04:06:38;;;;;;;3.10;2.90;;;19.10;99.90;;;;;;4958535;28;20304;-77
2022/08/01 04:09:04;;;;;;;3.10;2.80;;;19.10;99.90;;;;;;4974816;28;20186;-77
2022/08/01 04:11:30;;;;;;;2.93;2.73;;;19.10;99.90;;;;;;4958842;28;20180;-77
2022/08/01 04:13:55;;;;;;;2.90;2.70;;;19.10;99.90;;;;;;4958655;28;20293;-77
2022/08/01 04:16:22;;;;;;;3.30;2.97;;;19.10;99.90;;;;;;4942816;28;20191;-77
2022/08/01 04:18:48;;;;;;;3.03;2.73;;;19.10;99.90;;;;;;4958668;28;20211;-77
2022/08/01 04:21:14;;;;;;;3.40;3.10;;;19.10;99.90;;;;;;4992008;28;20203;-77
2022/08/01 04:23:43;;;;;;;3.53;3.00;;;19.10;99.90;;;;;;4958479;28;20606;-77
2022/08/01 04:26:10;;;;;;;4.00;3.43;;;19.20;99.90;;;;;;4974801;28;20258;-77
2022/08/01 04:28:37;;;;;;;3.33;3.03;;;19.10;99.90;;;;;;4942929;28;20183;-77
2022/08/01 04:31:09;;;;;;;3.60;3.30;;;19.10;99.90;;;;;;4974629;28;20179;-77
2022/08/01 04:33:36;;;;;;;3.40;3.10;;;19.10;99.90;;;;;;4974752;28;20290;-77
2022/08/01 04:36:05;;;;;;;3.17;2.90;;;19.20;99.90;;;;;;4958474;28;20228;-77
2022/08/01 04:38:36;;;;;;;3.40;3.10;;;19.30;99.90;;;;;;4976516;28;20226;-77
2022/08/01 04:41:02;;;;;;;3.63;3.10;;;19.30;99.90;;;;;;4978561;28;20203;-77
2022/08/01 04:43:28;;;;;;;4.78;3.20;;;19.20;99.90;;;;;;4941764;28;1069218;-77
2022/08/01 04:45:54;;;;;;;2.83;2.63;;;19.20;99.90;;;;;;4963129;28;20199;-77
2022/08/01 04:48:21;;;;;;;3.47;3.17;;;19.20;99.90;;;;;;4979064;28;20283;-77
2022/08/01 04:50:47;;;;;;;3.50;3.20;;;19.10;99.90;;;;;;4979086;28;20661;-77
2022/08/01 04:53:17;;;;;;;3.70;2.97;;;19.10;99.90;;;;;;4946944;28;20196;-77
2022/08/01 04:55:46;;;;;;;3.30;2.97;;;19.10;99.90;;;;;;4963237;28;20266;-77
2022/08/01 04:58:12;;;;;;;3.80;2.80;;;19.00;99.90;;;;;;4978837;28;20230;-77
2022/08/01 05:00:37;;;;;;;3.50;2.87;;;19.00;99.90;;;;;;4946953;28;20183;-77
2022/08/01 05:03:03;;;;;;;3.30;3.00;;;19.10;99.90;;;;;;4978847;28;20199;-77
2022/08/01 05:05:30;;;;;;;3.10;2.80;;;19.20;99.90;;;;;;4979276;28;20251;-77
2022/08/01 05:07:56;;;;;;;3.23;2.80;;;19.20;99.90;;;;;;4962958;28;20175;-77
2022/08/01 05:10:21;;;;;;;3.17;2.87;;;19.30;99.90;;;;;;4962741;28;20229;-77
2022/08/01 05:12:47;;;;;;;3.17;2.90;;;19.30;99.90;;;;;;4962599;28;20196;-77
2022/08/01 05:15:12;;;;;;;3.60;2.93;;;19.30;99.90;;;;;;4962630;28;20666;-77
2022/08/01 05:17:38;;;;;;;3.30;3.00;;;19.40;99.90;;;;;;4978562;28;20188;-77
2022/08/01 05:20:06;;;;;;;5.83;3.20;;;19.40;99.90;;;;;;4962891;28;20603;-77
2022/08/01 05:22:31;;;;;;;4.07;3.10;;;19.30;99.90;;;;;;4978496;28;20195;-77
2022/08/01 05:24:57;;;;;;;3.40;3.10;;;19.30;99.90;;;;;;4962539;28;20270;-77
2022/08/01 05:27:23;;;;;;;4.13;3.33;;;19.30;99.90;;;;;;4962137;28;20234;-77
2022/08/01 05:29:48;;;;;;;3.97;3.23;;;19.40;99.90;;;;;;4978439;28;20684;-77
2022/08/01 05:32:14;;;;;;;5.83;3.40;;;19.40;99.90;;;;;;4946160;28;20196;-77
2022/08/01 05:34:39;;;;;;;3.37;3.07;;;19.40;99.90;;;;;;4946312;28;20262;-77
2022/08/01 05:37:05;;;;;;;5.93;3.47;;;19.40;99.90;;;;;;4962106;28;20179;-77
2022/08/01 05:39:31;;;;;;;3.40;3.10;;;19.40;99.90;;;;;;4978508;28;20597;-77
2022/08/01 05:41:56;;;;;;;4.20;3.53;;;19.40;99.90;;;;;;4961971;28;20542;-77
2022/08/01 05:44:22;;;;;;;5.53;3.80;;;19.40;99.90;;;;;;4961871;28;20180;-77
2022/08/01 05:46:47;;;;;;;4.23;3.83;;;19.30;99.90;;;;;;4978007;28;20203;-77
2022/08/01 05:49:13;;;;;;;3.87;3.50;;;19.30;99.90;;;;;;4947258;28;20422;-77
2022/08/01 05:51:38;;;;;;;4.60;4.20;;;19.30;99.90;;;;;;4995123;23;20231;-77
2022/08/01 05:54:04;;;;;;;4.50;4.10;;;19.40;99.90;;;;;;4946837;28;20267;-76
2022/08/01 05:56:30;;;;;;;4.50;4.10;;;19.40;99.90;;;;;;4962498;28;20180;-77
2022/08/01 05:58:55;;;;;;;4.10;3.70;;;19.50;99.90;;;;;;4962536;28;20685;-76
2022/08/01 06:01:21;;;;;;;3.90;3.60;;;19.50;99.90;;;;;;4962268;28;20283;-76
2022/08/01 06:03:47;;;;;;;5.03;3.88;;;19.50;99.90;;;;;;4946828;28;20675;-76
2022/08/01 06:06:13;;;;;;;4.25;3.78;;;19.50;99.90;;;;;;4946221;28;20233;-77
2022/08/01 06:08:39;;;;;;;6.57;4.22;;;19.50;99.90;;;;;;4962048;28;20172;-77
2022/08/01 06:11:05;;;;;;;5.60;4.22;;;19.50;99.90;;;;;;4945820;28;20183;-77
2022/08/01 06:13:31;;;;;;;4.78;4.28;;;19.50;99.90;;;;;;4961570;28;20218;-80
2022/08/01 06:15:57;;;;;;;4.73;4.10;;;19.50;99.90;;;;;;4961465;28;20192;-78
2022/08/01 06:18:23;;;;;;;4.38;3.88;;;19.70;99.90;;;;;;4945794;28;20233;-78
2022/08/01 06:20:48;;;;;;;4.55;4.15;;;19.80;99.90;;;;;;4977556;28;20644;-78
2022/08/01 06:23:15;;;;;;;5.27;4.23;;;19.90;99.90;;;;;;4977406;28;20709;-78
2022/08/01 06:25:42;;;;;;;5.20;4.25;;;20.00;99.90;;;;;;4961537;28;20666;-78
2022/08/01 06:28:07;;;;;;;4.85;4.30;;;20.00;99.90;;;;;;4961079;28;20180;-78
2022/08/01 06:30:33;;;;;;;5.05;4.55;;;19.90;99.90;;;;;;4961560;28;20179;-78
2022/08/01 06:32:59;;;;;;;5.28;4.75;;;19.90;99.90;;;;;;4961379;28;20245;-78
2022/08/01 06:35:26;;;;;;;5.03;4.25;;;19.90;99.90;;;;;;4961394;28;20180;-78
2022/08/01 06:37:52;;;;;;;5.32;4.45;;;19.90;99.90;;;;;;4960936;28;20180;-78
2022/08/01 06:40:18;;;;;;;5.22;4.60;;;19.80;99.90;;;;;;4945003;28;20238;-78
2022/08/01 06:42:45;;;;;;;5.30;4.60;;;19.90;99.90;;;;;;4976988;28;20196;-78
2022/08/01 06:45:12;;;;;;;5.32;4.68;;;19.90;99.90;;;;;;4960888;28;20183;-78
2022/08/01 06:47:39;;;;;;;6.00;4.63;;;19.80;99.90;;;;;;4994142;28;20211;-78
2022/08/01 06:50:07;;;;;;;4.03;3.63;;;19.80;99.90;;;;;;4977050;28;20543;-78
2022/08/01 06:52:33;;;;;;;6.10;5.20;;;20.00;99.90;;;;;;4961067;28;20208;-78
2022/08/01 06:54:59;;;;;;;5.38;4.88;;;20.10;99.90;;;;;;4994362;28;20168;-78
2022/08/01 06:57:25;;;;;;;4.93;4.43;;;20.20;99.90;;;;;;4976575;28;20179;-78
2022/08/01 06:59:51;;;;;;;4.93;4.53;;;20.20;99.90;;;;;;4976361;28;20241;-78
2022/08/01 07:02:17;;;;;;;5.70;4.93;;;20.20;99.90;;;;;;4960670;28;20242;-78
2022/08/01 07:04:43;;;;;;;4.85;4.45;;;20.20;99.90;;;;;;4976766;28;20211;-78
2022/08/01 07:07:08;;;;;;;6.22;5.25;;;20.20;99.90;;;;;;4944391;28;20214;-78
2022/08/01 07:09:34;;;;;;;7.10;4.95;;;20.10;99.90;;;;;;4960606;28;20175;-78
2022/08/01 07:11:59;;;;;;;5.50;4.68;;;20.00;99.90;;;;;;4960523;28;20227;-78
2022/08/01 07:14:25;;;;;;;5.90;4.38;;;20.00;99.90;;;;;;4944414;28;20242;-78
2022/08/01 07:16:51;;;;;;;5.30;4.80;;;20.10;99.90;;;;;;4976406;28;20179;-78
2022/08/01 07:19:17;;;;;;;5.35;4.85;;;20.20;99.90;;;;;;4960294;28;20271;-78
2022/08/01 07:21:44;;;;;;;5.75;5.10;;;20.10;99.90;;;;;;4944340;28;20184;-78
2022/08/01 07:24:12;;;;;;;4.18;3.78;;;20.20;99.90;;;;;;4960361;28;20526;-78
2022/08/01 07:26:38;;;;;;;4.63;4.20;;;20.20;99.90;;;;;;4993330;28;20199;-78
2022/08/01 07:29:04;;;;;;;4.28;3.80;;;20.30;99.90;;;;;;4993641;28;20160;-78
2022/08/01 07:31:30;;;;;;;3.75;3.38;;;20.40;99.90;;;;;;4993576;28;20669;-78
2022/08/01 07:33:56;;;;;;;5.22;3.90;;;20.50;99.90;;;;;;4960072;28;20203;-78
2022/08/01 07:36:21;;;;;;;4.28;3.65;;;20.60;99.90;;;;;;4976048;28;20180;-78
2022/08/01 07:38:47;;;;;;;4.40;3.83;;;20.60;99.90;;;;;;4960151;28;20180;-78
2022/08/01 07:41:13;;;;;;;4.53;3.67;;;20.70;99.90;;;;;;4959928;28;20180;-78
2022/08/01 07:43:38;;;;;;;3.83;3.47;;;20.80;99.90;;;;;;4976017;28;20295;-78
2022/08/01 07:46:04;;;;;;;3.83;3.45;;;20.80;99.90;;;;;;4943825;28;20266;-78
2022/08/01 07:48:30;;;;;;;4.28;3.88;;;20.90;99.90;;;;;;4975943;28;20191;-78
2022/08/01 07:50:56;;;;;;;4.28;3.40;;;21.00;99.90;;;;;;4975717;28;20246;-78
2022/08/01 07:53:22;;;;;;;3.60;3.30;;;21.20;99.90;;;;;;4975744;28;20199;-78
2022/08/01 07:55:48;;;;;;;3.75;3.40;;;21.20;99.90;;;;;;4975866;28;20187;-78
2022/08/01 07:58:14;;;;;;;3.65;3.35;;;21.30;99.90;;;;;;4943601;28;20274;-78
2022/08/01 08:00:40;;;;;;;3.80;3.50;;;21.40;99.90;;;;;;4975938;28;20187;-78
2022/08/01 08:03:06;;;;;;;3.97;3.58;;;21.50;99.90;;;;;;4992995;28;20199;-78
2022/08/01 08:05:34;;;;;;;3.35;3.00;;;21.60;99.90;;;;;;4975742;28;20171;-78
2022/08/01 08:08:10;;;;;;;4.07;3.05;;;21.60;99.90;;;;;;4975382;28;20172;-78
2022/08/01 08:10:36;;;;;;;3.30;2.97;;;21.70;99.90;;;;;;4975671;28;20179;-78
2022/08/01 08:13:02;;;;;;;3.20;3.00;;;21.70;99.90;;;;;;4975603;28;20274;-78
2022/08/01 08:15:28;;;;;;;3.50;3.20;;;21.70;99.90;;;;;;4959582;28;20543;-78
2022/08/01 08:17:54;;;;;;;3.15;2.92;;;21.70;99.90;;;;;;4975395;28;20578;-78
2022/08/01 08:20:24;;;;;;;3.40;3.10;;;21.70;99.90;;;;;;4943603;28;20171;-78
2022/08/01 08:22:50;;;;;;;4.82;3.08;;;21.80;99.90;;;;;;4959988;28;20202;-78
2022/08/01 08:25:16;;;;;;;3.15;2.90;;;22.00;99.90;;;;;;4959565;28;20176;-78
2022/08/01 08:27:42;;;;;;;3.22;2.88;;;22.30;99.90;;;;;;4959051;28;20717;-78
2022/08/01 08:30:08;;;;;;;3.35;2.83;;;22.50;99.90;;;;;;4959446;28;20207;-78
2022/08/01 08:32:35;;;;;;;3.00;2.70;;;22.70;99.90;;;;;;4975459;28;20192;-78
2022/08/01 08:35:01;;;;;;;3.38;2.67;;;22.70;99.90;;;;;;4959438;28;20203;-78
2022/08/01 08:37:27;;;;;;;3.47;2.42;;;22.60;99.90;;;;;;4943074;28;20207;-78
2022/08/01 08:39:52;;;;;;;3.20;2.90;;;22.50;99.90;;;;;;4959396;28;20218;-78
2022/08/01 08:42:18;;;;;;;3.35;2.72;;;22.40;99.90;;;;;;4943392;28;20222;-78
2022/08/01 08:44:44;;;;;;;3.30;3.00;;;22.30;99.90;;;;;;4958986;28;20196;-78
2022/08/01 08:47:12;;;;;;;3.03;2.70;;;22.40;99.90;;;;;;4958951;28;20583;-78
2022/08/01 08:49:38;;;;;;;3.05;2.75;;;22.50;99.90;;;;;;4975183;28;20258;-78
2022/08/01 08:52:04;;;;;;;3.03;2.83;;;22.50;99.90;;;;;;4959263;28;20626;-78
2022/08/01 08:54:32;;;;;;;3.25;2.88;;;22.50;99.90;;;;;;4959346;28;20240;-78
2022/08/01 08:56:59;;;;;;;3.10;2.80;;;22.40;99.90;;;;;;4959096;28;20246;-78
2022/08/01 08:59:25;;;;;;;2.80;2.60;;;22.40;99.90;;;;;;4959115;28;20179;-78
2022/08/01 09:01:51;;;;;;;2.97;2.78;;;22.40;99.90;;;;;;4975027;28;20225;-78
2022/08/01 09:04:16;;;;;;;3.40;3.10;;;22.70;99.90;;;;;;4959049;28;20191;-78
2022/08/01 09:06:43;;;;;;;3.00;2.80;;;22.90;99.90;;;;;;4974939;28;20196;-78
2022/08/01 09:09:09;;;;;;;2.97;2.78;;;23.20;99.90;;;;;;4975122;28;20179;-78
2022/08/01 09:11:35;;;;;;;2.85;2.65;;;23.20;99.90;;;;;;4959137;28;20263;-78
2022/08/01 09:14:32;;;;;;;3.55;3.25;;;22.90;99.90;;;;;;4958924;28;20307;-78
2022/08/01 09:17:10;;;;;;;3.28;2.97;;;22.80;99.90;;;;;;4974717;28;20212;-78
2022/08/01 09:19:47;;;;;;;3.70;3.40;;;22.80;99.90;;;;;;4975008;28;20175;-78
2022/08/01 09:22:18;;;;;;;3.22;2.92;;;22.80;99.90;;;;;;4959049;28;20195;-78
2022/08/01 09:25:09;;;;;;;3.58;3.25;;;22.80;99.90;;;;;;4977937;28;20191;-78
2022/08/01 09:27:37;;;;;;;3.40;3.10;;;22.90;99.90;;;;;;4978191;28;20752;-78
2022/08/01 09:30:09;;;;;;;4.53;3.50;;;22.90;99.90;;;;;;4962641;28;20183;-78
2022/08/01 09:32:34;;;;;;;3.63;3.33;;;22.90;99.90;;;;;;4978472;28;20696;-78
2022/08/01 09:35:34;;;;;;;3.95;3.55;;;23.00;99.90;;;;;;4962331;28;20172;-78
2022/08/01 09:38:20;;;;;;;4.00;3.60;;;23.10;99.90;;;;;;4962597;28;20179;-78
2022/08/01 09:40:53;;;;;;;4.10;3.70;;;23.00;99.90;;;;;;4962235;28;20184;-78
2022/08/01 09:43:21;;;;;;;4.18;3.78;;;22.90;99.90;;;;;;4977721;28;20619;-78
2022/08/01 09:45:47;;;;;;;3.88;3.58;;;22.90;99.90;;;;;;4978022;28;20737;-78
2022/08/01 09:48:13;;;;;;;4.20;3.80;;;22.90;99.90;;;;;;4977948;28;20172;-78
2022/08/01 09:50:43;;;;;;;4.32;3.92;;;22.90;99.90;;;;;;4962040;28;20218;-78
2022/08/01 09:53:12;;;;;;;3.97;3.55;;;22.90;99.90;;;;;;4977850;28;20616;-78
2022/08/01 09:55:39;;;;;;;4.72;4.22;;;22.90;99.90;;;;;;4962086;28;20195;-78
2022/08/01 09:58:06;;;;;;;4.38;3.97;;;23.00;99.90;;;;;;4978109;28;20179;-78
2022/08/01 10:00:33;;;;;;;4.32;3.92;;;23.00;99.90;;;;;;4961909;28;20665;-78
2022/08/01 10:02:59;;;;;;;4.57;4.00;;;23.00;99.90;;;;;;4977932;28;20210;-78
2022/08/01 10:05:35;;;;;;;4.68;3.65;;;23.00;99.90;;;;;;4978099;28;20229;-78
2022/08/01 10:08:04;;;;;;;4.28;3.88;;;23.00;99.90;;;;;;4977709;28;20187;-78
2022/08/01 10:10:31;;;;;;;3.97;3.58;;;23.10;99.90;;;;;;4961607;28;20226;-78
2022/08/01 10:12:58;;;;;;;4.35;3.95;;;23.30;99.90;;;;;;4961649;28;20200;-78
2022/08/01 10:15:25;;;;;;;4.25;3.90;;;23.60;99.90;;;;;;4961445;28;20218;-78
2022/08/01 10:17:55;;;;;;;4.60;4.20;;;24.00;99.90;;;;;;4994894;28;20270;-78
2022/08/01 10:20:23;;;;;;;5.38;4.30;;;24.60;99.90;;;;;;4961898;28;20175;-78
2022/08/01 10:22:53;;;;;;;4.75;4.25;;;25.00;99.90;;;;;;4945433;28;20204;-78
2022/08/01 10:25:21;;;;;;;4.72;4.22;;;25.00;99.90;;;;;;4977453;28;20670;-78
2022/08/01 10:27:49;;;;;;;4.45;4.05;;;25.20;99.90;;;;;;4960872;28;20207;-78
2022/08/01 10:30:15;;;;;;;5.05;4.55;;;25.60;99.90;;;;;;4961452;28;20180;-78
2022/08/01 10:32:44;;;;;;;4.53;3.95;;;26.00;99.90;;;;;;4977530;28;20198;-78
2022/08/01 10:35:16;;;;;;;4.72;3.97;;;26.10;99.90;;;;;;4976112;28;20176;-78
2022/08/01 10:37:44;;;;;;;4.60;4.00;;;25.70;99.90;;;;;;4946860;28;20537;-78
2022/08/01 10:40:12;;;;;;;4.97;4.28;;;25.40;99.90;;;;;;4994575;28;20176;-78
2022/08/01 10:42:43;;;;;;;5.18;3.97;;;25.10;99.90;;;;;;4977117;28;20204;-78
2022/08/01 10:45:12;;;;;;;4.47;4.05;;;24.70;99.90;;;;;;4960632;28;20183;-78
2022/08/01 10:47:59;;;;;;;4.20;3.80;;;24.50;99.90;;;;;;4976818;28;20298;-78
2022/08/01 10:50:33;;;;;;;3.90;3.20;;;24.50;99.90;;;;;;4963395;28;20196;-78
2022/08/01 10:53:21;;;;;;;3.70;3.40;;;24.50;99.90;;;;;;4960742;28;20202;-78
2022/08/01 10:56:09;;;;;;;4.50;4.10;;;24.50;99.90;;;;;;4977041;28;20179;-78
2022/08/01 10:58:42;;;;;;;4.53;4.13;;;24.20;99.90;;;;;;4961114;28;20187;-78
2022/08/01 11:01:26;;;;;;;4.38;3.97;;;24.10;99.90;;;;;;4944693;28;20282;-78
2022/08/01 11:04:02;;;;;;;4.40;4.00;;;23.90;99.90;;;;;;4945454;28;20192;-78
2022/08/01 11:06:36;;;;;;;4.35;3.95;;;23.80;99.90;;;;;;4976571;28;20573;-78
2022/08/01 11:09:05;;;;;;;4.50;4.07;;;23.90;99.90;;;;;;4976907;28;20654;-78
2022/08/01 11:11:31;;;;;;;5.07;4.57;;;23.90;99.90;;;;;;4976574;28;20542;-78
2022/08/01 11:14:00;;;;;;;4.50;4.10;;;24.40;99.90;;;;;;4960709;28;20210;-78
2022/08/01 11:16:31;;;;;;;4.93;3.95;;;25.00;99.90;;;;;;4976347;28;20172;-78
2022/08/01 11:18:58;;;;;;;4.18;3.78;;;25.40;99.90;;;;;;4960660;28;20357;-78
2022/08/01 11:21:52;;;;;;;4.03;3.58;;;25.90;99.90;;;;;;4944446;28;20188;-78
2022/08/01 11:24:46;;;;;;;5.03;3.10;;;26.60;99.90;;;;;;4976201;28;20179;-78
2022/08/01 11:27:23;;;;;;;1.95;1.67;;;26.60;99.90;;;;;;4976149;28;20207;-78
2022/08/01 11:30:08;;;;;;;8.20;1.60;;;26.60;99.90;;;;;;4960259;28;20175;-78
2022/08/01 11:32:48;;;;;;;1.95;1.60;;;27.00;99.90;;;;;;4975988;28;20226;-78
2022/08/01 11:35:14;;;;;;;1.52;1.42;;;26.80;99.90;;;;;;4976131;28;20172;-78
2022/08/01 11:37:40;;;;;;;2.22;1.70;;;26.40;99.90;;;;;;4976274;28;20230;-78
2022/08/01 11:40:16;;;;;;;3.40;2.00;;;26.00;99.90;;;;;;4976137;28;20176;-78
2022/08/01 11:42:42;;;;;;;1.90;1.50;;;25.60;99.90;;;;;;4959742;28;20797;-78
2022/08/01 11:45:11;;;;;;;2.20;1.77;;;25.30;99.90;;;;;;4959897;28;20282;-78
2022/08/01 11:47:47;;;;;;;3.45;1.85;;;25.30;99.90;;;;;;4960001;28;20736;-78
2022/08/01 11:50:45;;;;;;;2.15;1.83;;;25.40;99.90;;;;;;4960671;28;20191;-78
2022/08/01 11:53:14;;;;;;;1.52;1.40;;;26.10;99.90;;;;;;4933562;28;20306;-78
2022/08/01 11:55:48;;;;;;;2.97;1.95;;;26.70;99.90;;;;;;4993252;28;20176;-78
2022/08/01 11:58:15;;;;;;;1.70;1.60;;;27.20;99.90;;;;;;4959648;28;20179;-78
2022/08/01 12:00:41;;;;;;;1.83;1.50;;;26.80;99.90;;;;;;4976081;28;20175;-78
2022/08/01 12:03:08;;;;;;;2.88;2.30;;;26.50;99.90;;;;;;4975853;28;20212;-78
2022/08/01 12:05:36;;;;;;;1.70;1.60;;;26.30;99.90;;;;;;4960341;28;20176;-78
2022/08/01 12:08:04;;;;;;;2.45;2.17;;;26.00;99.90;;;;;;4943809;28;20593;-77
2022/08/01 12:10:36;;;;;;;2.33;1.88;;;26.40;99.90;;;;;;4960025;28;20168;-77
2022/08/01 12:13:04;;;;;;;2.75;2.30;;;27.00;99.90;;;;;;4960346;28;20196;-78
2022/08/01 12:15:32;;;;;;;3.10;2.80;;;27.80;99.90;;;;;;4975664;28;20226;-78
2022/08/01 12:18:01;;;;;;;2.38;1.80;;;28.20;99.90;;;;;;4975550;28;20180;-77
2022/08/01 12:20:30;;;;;;;2.47;2.00;;;28.30;98.70;;;;;;4959425;28;20180;-78
2022/08/01 12:22:57;;;;;;;2.10;1.90;;;28.20;98.90;;;;;;4959653;28;20202;-78
2022/08/01 12:25:23;;;;;;;2.05;1.58;;;28.20;97.00;;;;;;4975649;28;20179;-77
2022/08/01 12:27:49;;;;;;;1.77;1.40;;;28.40;97.30;;;;;;4975478;28;20207;-77
2022/08/01 12:30:30;;;;;;;4.22;1.38;;;28.10;93.60;;;;;;4975512;28;20186;-77
2022/08/01 12:32:56;;;;;;;2.20;1.33;;;27.40;93.70;;;;;;4976763;28;20187;-77
2022/08/01 12:35:24;;;;;;;1.48;1.38;;;27.20;98.20;;;;;;4975370;28;20172;-78
2022/08/01 12:38:02;;;;;;;1.45;1.35;;;27.10;96.60;;;;;;4959201;28;20561;-78
2022/08/01 12:40:33;;;;;;;1.38;1.20;;;27.20;97.60;;;;;;4975774;28;20267;-79
2022/08/01 12:43:02;;;;;;;1.75;1.55;;;27.20;96.60;;;;;;4975096;28;20191;-78
2022/08/01 12:45:42;;;;;;;2.58;1.67;;;27.20;96.40;;;;;;4974985;28;20211;-78
2022/08/01 12:48:11;;;;;;;1.58;1.45;;;27.20;96.60;;;;;;4960896;28;20183;-77
2022/08/01 12:50:41;;;;;;;1.70;1.60;;;27.20;95.50;;;;;;4975478;28;20200;-78
2022/08/01 12:53:09;;;;;;;3.20;1.52;;;27.20;96.90;;;;;;4976013;28;20219;-78
2022/08/01 12:55:50;;;;;;;2.25;1.90;;;27.10;96.20;;;;;;4959072;28;20180;-78